Saint Helens, OR (97051)

1:48 AM PDT on August 31, 2015 (GMT -0700)
Arbor Hill, Sykes Rd. | | Change Station
CLOSE
Current Station
Personal Weather Station
Location: St. Helens, OR
Elevation: 200 ft
Nearby Weather Stations

Elev 200 ft 45.85 °N, 122.85 °W | Updated 2 minutes ago

Overcast
Overcast
60.1 °F
Feels Like 60.1 °F
N
0.0
Wind Variable Wind from SSE
Gusts 0.0 mph

Today
High -- | Low -- °F
--% Chance of Precip.
Yesterday
High -- | Low -- °F
Precip. -- in
6:30 AM 7:51 PM
Waning Gibbous, 96% visible
Pressure 30.06 in
Visibility 10.0 miles
Clouds Overcast 9500 ft
Dew Point 54 °F
Humidity 79%
Rainfall 0.00 in
Snow Depth Not available.
UV 0 out of 12
Pollen .50 out of 12
Air Quality Not available.
Flu Activity Not available.
METAR KSPB 310753Z AUTO 17005KT 10SM OVC095 16/11 A3005 RMK AO2 SLP177 T01610106 402330139
Pressure 30.06 in
Visibility 10.0 miles
Clouds Overcast 9500 ft
Dew Point 54 °F
Humidity 79%
Rainfall 0.00 in
Snow Depth Not available.
UV 0 out of 12
Pollen .50 out of 12
Air Quality Not available.
Flu Activity Not available.
METAR KSPB 310753Z AUTO 17005KT 10SM OVC095 16/11 A3005 RMK AO2 SLP177 T01610106 402330139

10-Day Weather Forecast

×

Almanac

Astronomy

Aug. 31, 2015 Rise Set
Actual Time
Civil Twilight
Nautical Twilight
Astronomical Twilight
Moon
Length of Visible Light
Length of Day
Tomorrow will be .
, % of the Moon is Illuminated

Today's Extremes

State Highs State Lows

Community

WunderPhotos

Upload Photos

1,851,220 photos uploaded!

WunderBlogs® & News

Nearby

Air Quality

  Air Quality AQ Index Pollutant
Not available.

Snow Depth

Station Depth Elevation

Earthquake Activity

City Distance Mag. Time & Date
Minimum magnitude displayed is 2.5.

Coastal Water Temperatures

Place Temperature

Stations

Nearby Weather Stations

Station Location Temp. Windchill Dew Point Humidity Wind Precip. Elev Updated Type